Time;durP1;ratioP1;P1;durP2;ratioP2;P2;SDS_P1;SDS_P2;PMS_P1;PMS_P2;Temp;Humidity;BMP_temperature;BMP_pressure;BME280_temperature;BME280_humidity;BME280_pressure;Samples;Min_cycle;Max_cycle;Signal;HPM_P1;HPM_P2
2023/01/16 00:01:21;;;;;;;0.30;0.30;;;9.50;99.90;;;;;;5074278;28;20063;-71
2023/01/16 00:03:47;;;;;;;0.20;0.20;;;9.60;99.90;;;;;;5073307;28;20024;-71
2023/01/16 00:06:13;;;;;;;0.20;0.20;;;9.60;99.90;;;;;;5073434;28;20032;-70
2023/01/16 00:08:38;;;;;;;0.20;0.20;;;9.50;99.90;;;;;;5052756;28;20088;-71
2023/01/16 00:11:04;;;;;;;0.20;0.20;;;9.40;99.90;;;;;;5054938;28;20017;-70
2023/01/16 00:13:30;;;;;;;0.52;0.52;;;9.30;99.90;;;;;;5064828;28;20500;-71
2023/01/16 00:15:55;;;;;;;0.30;0.30;;;9.20;99.90;;;;;;5058609;28;20165;-70
2023/01/16 00:18:21;;;;;;;0.30;0.30;;;9.20;99.90;;;;;;5057039;28;20036;-71
2023/01/16 00:20:48;;;;;;;0.20;0.20;;;9.10;99.90;;;;;;5054292;28;20517;-71
2023/01/16 00:23:14;;;;;;;0.20;0.20;;;9.10;99.90;;;;;;5053834;28;20049;-70
2023/01/16 00:25:43;;;;;;;0.60;0.60;;;9.10;99.90;;;;;;5052380;28;20482;-71
2023/01/16 00:28:10;;;;;;;0.30;0.30;;;9.00;99.90;;;;;;5052330;28;20033;-70
2023/01/16 00:30:37;;;;;;;0.30;0.30;;;9.00;99.90;;;;;;5053581;28;20102;-70
2023/01/16 00:33:04;;;;;;;0.30;0.30;;;9.00;99.90;;;;;;5053108;28;20064;-70
2023/01/16 00:35:30;;;;;;;0.20;0.20;;;8.90;99.90;;;;;;5053705;28;20111;-70
2023/01/16 00:37:55;;;;;;;0.30;0.30;;;8.80;99.90;;;;;;5070505;28;20024;-70
2023/01/16 00:40:21;;;;;;;0.20;0.20;;;8.80;99.90;;;;;;5070793;28;20025;-70
2023/01/16 00:42:47;;;;;;;0.30;0.30;;;8.70;99.90;;;;;;5053251;28;20025;-69
2023/01/16 00:45:13;;;;;;;0.30;0.30;;;8.60;99.90;;;;;;5053135;28;20057;-70
2023/01/16 00:47:39;;;;;;;0.30;0.30;;;8.50;99.90;;;;;;5053136;28;20131;-70
2023/01/16 00:50:05;;;;;;;0.30;0.30;;;8.40;99.90;;;;;;5053376;28;20037;-70
2023/01/16 00:52:31;;;;;;;0.30;0.30;;;8.50;99.90;;;;;;5058108;28;20363;-72
2023/01/16 00:54:57;;;;;;;0.25;0.25;;;8.40;99.90;;;;;;5070985;28;20029;-71
2023/01/16 00:57:22;;;;;;;0.30;0.30;;;8.30;99.90;;;;;;5072872;28;20070;-71
2023/01/16 00:59:48;;;;;;;0.20;0.20;;;8.10;99.90;;;;;;5072959;28;20031;-71
2023/01/16 01:02:14;;;;;;;0.30;0.30;;;8.00;99.90;;;;;;5072651;28;20059;-71
2023/01/16 01:04:41;;;;;;;1.20;1.20;;;7.70;99.90;;;;;;5073212;28;20070;-72
2023/01/16 01:07:07;;;;;;;0.30;0.30;;;7.60;99.90;;;;;;5073449;28;20032;-73
2023/01/16 01:09:32;;;;;;;0.30;0.30;;;7.50;99.90;;;;;;5073274;28;20044;-72
2023/01/16 01:11:59;;;;;;;0.30;0.30;;;7.40;99.90;;;;;;5071970;28;20052;-73
2023/01/16 01:14:25;;;;;;;0.30;0.30;;;7.50;99.90;;;;;;5072558;28;20079;-72
2023/01/16 01:16:51;;;;;;;0.30;0.30;;;7.50;99.90;;;;;;5072517;28;20111;-72
2023/01/16 01:19:16;;;;;;;0.30;0.30;;;7.40;99.90;;;;;;5072697;28;20569;-72
2023/01/16 01:21:42;;;;;;;0.28;0.28;;;7.30;99.90;;;;;;5072647;28;20062;-72
2023/01/16 01:24:08;;;;;;;0.73;0.73;;;7.40;99.90;;;;;;5071151;28;20021;-72
2023/01/16 01:26:35;;;;;;;0.30;0.30;;;7.40;99.90;;;;;;5072492;28;20029;-72
2023/01/16 01:29:01;;;;;;;0.30;0.30;;;7.60;99.90;;;;;;5054264;28;20505;-73
2023/01/16 01:31:26;;;;;;;0.22;0.22;;;7.70;99.90;;;;;;5052582;28;20051;-72
2023/01/16 01:33:52;;;;;;;0.30;0.30;;;7.70;99.90;;;;;;5052310;28;20029;-72
2023/01/16 01:36:18;;;;;;;0.30;0.30;;;7.60;99.90;;;;;;5052414;28;20043;-71
2023/01/16 01:38:46;;;;;;;0.30;0.30;;;7.60;99.90;;;;;;5052284;28;20029;-72
2023/01/16 01:41:15;;;;;;;0.25;0.25;;;7.60;99.90;;;;;;5052185;28;20109;-71
2023/01/16 01:43:43;;;;;;;0.30;0.30;;;7.70;99.90;;;;;;5052423;28;20021;-73
2023/01/16 01:46:20;;;;;;;1.13;1.08;;;7.60;99.90;;;;;;5050742;28;20708;-72
2023/01/16 01:48:51;;;;;;;0.20;0.20;;;7.60;99.90;;;;;;5062702;28;20465;-71
2023/01/16 01:51:25;;;;;;;0.30;0.30;;;7.80;99.90;;;;;;5055508;28;20111;-72
2023/01/16 01:54:02;;;;;;;0.30;0.30;;;7.70;99.90;;;;;;5051919;28;20029;-71
2023/01/16 01:56:32;;;;;;;0.30;0.30;;;7.70;99.90;;;;;;5053411;28;20052;-72
2023/01/16 01:59:05;;;;;;;0.30;0.30;;;7.80;99.90;;;;;;5071918;28;20029;-73
2023/01/16 02:01:31;;;;;;;0.30;0.30;;;7.80;99.90;;;;;;5069348;28;20035;-72
2023/01/16 02:04:01;;;;;;;0.30;0.30;;;7.90;99.90;;;;;;5069658;28;20414;-72
2023/01/16 02:06:37;;;;;;;0.30;0.30;;;7.80;99.90;;;;;;5057116;28;20109;-71
2023/01/16 02:09:03;;;;;;;0.30;0.30;;;7.90;99.90;;;;;;5062825;28;20095;-71
2023/01/16 02:11:55;;;;;;;0.30;0.30;;;7.90;99.90;;;;;;5051067;28;20470;-71
2023/01/16 02:14:22;;;;;;;;;;;7.90;99.90;;;;;;5049427;28;20033;-72
2023/01/16 02:19:46;;;;;;;0.20;0.20;;;8.00;99.90;;;;;;5072282;28;20086;-71
2023/01/16 02:22:37;;;;;;;0.20;0.20;;;8.10;99.90;;;;;;5070792;28;20509;-70
2023/01/16 02:25:28;;;;;;;0.30;0.30;;;8.00;99.90;;;;;;5066522;28;20017;-71
2023/01/16 02:28:25;;;;;;;0.30;0.30;;;8.00;99.90;;;;;;5065594;28;20489;-74
2023/01/16 02:31:16;;;;;;;0.20;0.20;;;7.90;99.90;;;;;;5037134;28;20085;-72
2023/01/16 02:34:11;;;;;;;0.38;0.38;;;8.00;99.90;;;;;;5071723;28;20020;-71
2023/01/16 02:36:59;;;;;;;0.22;0.22;;;8.00;99.90;;;;;;5030182;28;20081;-71
2023/01/16 02:39:40;;;;;;;0.40;0.40;;;8.00;99.90;;;;;;5071316;28;20370;-71
2023/01/16 02:42:26;;;;;;;0.20;0.20;;;8.10;99.90;;;;;;5063465;28;20020;-71
2023/01/16 02:44:55;;;;;;;0.30;0.30;;;8.10;99.90;;;;;;5070803;28;20376;-71
2023/01/16 02:47:43;;;;;;;0.20;0.20;;;8.10;99.90;;;;;;5051255;28;20021;-71
2023/01/16 02:50:38;;;;;;;0.20;0.20;;;8.20;99.90;;;;;;5057353;28;20055;-72
2023/01/16 02:53:41;;;;;;;0.30;0.30;;;8.20;99.90;;;;;;5037754;28;20071;-72
2023/01/16 02:56:12;;;;;;;0.57;0.57;;;8.30;99.90;;;;;;5030729;28;20383;-72
2023/01/16 02:58:48;;;;;;;0.40;0.40;;;8.20;99.90;;;;;;5061471;28;20093;-71
2023/01/16 03:01:18;;;;;;;0.30;0.30;;;8.30;99.90;;;;;;5051366;28;20029;-71
2023/01/16 03:03:55;;;;;;;0.30;0.30;;;8.30;99.90;;;;;;5051028;28;20048;-72
2023/01/16 03:06:39;;;;;;;0.20;0.20;;;8.20;99.90;;;;;;5050846;28;20385;-72
2023/01/16 03:09:42;;;;;;;0.30;0.30;;;8.30;99.90;;;;;;5050830;28;20087;-72
2023/01/16 03:12:28;;;;;;;0.30;0.30;;;8.20;99.90;;;;;;5058718;28;20079;-72
2023/01/16 03:15:26;;;;;;;0.20;0.20;;;8.20;99.90;;;;;;5070717;28;20552;-71
2023/01/16 03:18:10;;;;;;;0.30;0.30;;;8.20;99.90;;;;;;5051710;28;20060;-73
2023/01/16 03:21:00;;;;;;;0.30;0.30;;;8.10;99.90;;;;;;5053185;28;20093;-72
2023/01/16 03:23:33;;;;;;;0.30;0.30;;;8.20;99.90;;;;;;5070853;28;20028;-72
2023/01/16 03:26:06;;;;;;;0.30;0.30;;;8.10;99.90;;;;;;5070758;28;20058;-72
2023/01/16 03:28:48;;;;;;;0.20;0.20;;;8.10;99.90;;;;;;5070847;28;20051;-72
2023/01/16 03:31:33;;;;;;;0.25;0.25;;;8.00;99.90;;;;;;5070654;28;20021;-72
2023/01/16 03:34:08;;;;;;;0.30;0.30;;;8.10;99.90;;;;;;5057676;28;20658;-72
2023/01/16 03:36:52;;;;;;;0.30;0.30;;;8.00;99.90;;;;;;5051075;28;20442;-71
2023/01/16 03:39:24;;;;;;;0.30;0.30;;;8.00;99.90;;;;;;5058786;28;20025;-72
2023/01/16 03:41:52;;;;;;;0.30;0.30;;;8.00;99.90;;;;;;5051287;28;20029;-72
2023/01/16 03:44:29;;;;;;;0.30;0.30;;;8.00;99.90;;;;;;5054282;28;20158;-72
2023/01/16 03:46:55;;;;;;;0.30;0.30;;;8.10;99.90;;;;;;5070524;28;20021;-72
2023/01/16 03:49:39;;;;;;;0.30;0.30;;;8.00;99.90;;;;;;5070065;28;20036;-73
2023/01/16 03:52:07;;;;;;;0.30;0.30;;;8.00;99.90;;;;;;5069219;28;20031;-73
2023/01/16 03:54:45;;;;;;;0.20;0.20;;;8.10;99.90;;;;;;5070570;28;20025;-73
2023/01/16 03:57:22;;;;;;;0.30;0.30;;;8.00;99.90;;;;;;5067362;28;20362;-75
2023/01/16 03:59:49;;;;;;;0.30;0.30;;;8.00;99.90;;;;;;5050647;28;20102;-73
2023/01/16 04:02:39;;;;;;;0.30;0.30;;;7.90;99.90;;;;;;5050522;28;20017;-72
2023/01/16 04:05:27;;;;;;;0.30;0.30;;;7.90;99.90;;;;;;5050233;28;20036;-73
2023/01/16 04:08:14;;;;;;;0.30;0.30;;;7.90;99.90;;;;;;5060071;28;20033;-72
2023/01/16 04:10:43;;;;;;;0.30;0.30;;;7.90;99.90;;;;;;5073850;28;20040;-73
2023/01/16 04:13:22;;;;;;;0.30;0.30;;;7.90;99.90;;;;;;5073750;28;20032;-74
2023/01/16 04:15:52;;;;;;;1.88;1.77;;;7.80;99.90;;;;;;5072253;28;20399;-73
2023/01/16 04:18:21;;;;;;;0.28;0.28;;;7.90;99.90;;;;;;5060434;28;20053;-73
2023/01/16 04:20:49;;;;;;;0.20;0.20;;;7.80;99.90;;;;;;5053862;28;20473;-73
2023/01/16 04:23:16;;;;;;;0.30;0.30;;;7.70;99.90;;;;;;5053998;28;20029;-72
2023/01/16 04:25:42;;;;;;;0.20;0.20;;;7.60;99.90;;;;;;5053813;28;20074;-73
2023/01/16 04:28:08;;;;;;;0.30;0.30;;;7.50;99.90;;;;;;5053659;28;20033;-73
2023/01/16 04:30:34;;;;;;;0.30;0.30;;;7.40;99.90;;;;;;5053469;28;20086;-73
2023/01/16 04:33:04;;;;;;;0.30;0.30;;;7.40;99.90;;;;;;5053619;28;20031;-73
2023/01/16 04:35:30;;;;;;;0.20;0.20;;;7.40;99.90;;;;;;5053554;28;20600;-72
2023/01/16 04:37:56;;;;;;;0.30;0.30;;;7.30;99.90;;;;;;5068523;28;20032;-73
2023/01/16 04:40:21;;;;;;;0.30;0.30;;;7.20;99.90;;;;;;5067499;28;20118;-73
2023/01/16 04:42:47;;;;;;;0.30;0.30;;;7.20;99.90;;;;;;5071150;28;20025;-72
2023/01/16 04:45:13;;;;;;;0.30;0.30;;;7.00;99.90;;;;;;5071467;28;20024;-73
2023/01/16 04:47:39;;;;;;;0.30;0.30;;;7.10;99.90;;;;;;5073354;28;20019;-73
2023/01/16 04:50:05;;;;;;;0.30;0.30;;;7.00;99.90;;;;;;5074317;28;20127;-72
2023/01/16 04:52:31;;;;;;;0.30;0.30;;;6.90;99.90;;;;;;5072842;28;20550;-73
2023/01/16 04:54:56;;;;;;;0.30;0.30;;;6.80;99.90;;;;;;5073164;28;20032;-73
2023/01/16 04:57:22;;;;;;;0.30;0.30;;;6.80;99.90;;;;;;5073143;28;20094;-73
2023/01/16 04:59:48;;;;;;;0.30;0.30;;;6.70;99.90;;;;;;5065558;28;20021;-73
2023/01/16 05:02:13;;;;;;;0.30;0.30;;;6.60;99.90;;;;;;5053024;28;20036;-74
2023/01/16 05:04:39;;;;;;;0.30;0.30;;;6.60;99.90;;;;;;5053015;28;20511;-73
2023/01/16 05:07:05;;;;;;;0.30;0.30;;;6.60;99.90;;;;;;5052881;28;20083;-72
2023/01/16 05:09:30;;;;;;;0.30;0.30;;;6.40;99.90;;;;;;5052877;28;20033;-74
2023/01/16 05:11:56;;;;;;;0.30;0.30;;;6.30;99.90;;;;;;5051836;28;20029;-74
2023/01/16 05:14:22;;;;;;;0.30;0.30;;;6.10;99.90;;;;;;5068095;28;20048;-73
2023/01/16 05:16:47;;;;;;;0.30;0.30;;;6.00;99.90;;;;;;5072260;28;20039;-72
2023/01/16 05:19:13;;;;;;;0.30;0.30;;;5.80;99.90;;;;;;5072175;28;20111;-73
2023/01/16 05:21:39;;;;;;;0.30;0.30;;;5.70;99.90;;;;;;5072082;28;20020;-72
2023/01/16 05:24:05;;;;;;;0.30;0.30;;;5.40;99.90;;;;;;5056996;28;20036;-74
2023/01/16 05:26:30;;;;;;;0.38;0.38;;;5.30;99.90;;;;;;5052529;28;20116;-74
2023/01/16 05:28:57;;;;;;;0.30;0.30;;;5.30;99.90;;;;;;5065098;28;20127;-74
2023/01/16 05:31:23;;;;;;;0.40;0.40;;;5.20;99.90;;;;;;5069721;28;20384;-74
2023/01/16 05:33:48;;;;;;;0.30;0.30;;;5.10;1.00;;;;;;5052313;28;20028;-74
2023/01/16 05:36:14;;;;;;;0.40;0.40;;;5.10;99.90;;;;;;5052119;28;20028;-73
2023/01/16 05:38:40;;;;;;;0.40;0.40;;;4.80;99.90;;;;;;5065360;28;20032;-73
2023/01/16 05:41:05;;;;;;;0.35;0.35;;;4.60;99.90;;;;;;5051816;28;20057;-74
2023/01/16 05:43:31;;;;;;;0.38;0.38;;;4.60;99.90;;;;;;5067726;28;20090;-74
2023/01/16 05:45:57;;;;;;;0.40;0.40;;;4.60;99.90;;;;;;5052055;28;20511;-73
2023/01/16 05:48:23;;;;;;;0.38;0.38;;;4.60;99.90;;;;;;5052191;28;20041;-73
2023/01/16 05:50:50;;;;;;;0.40;0.40;;;4.70;99.90;;;;;;5051781;28;20019;-73
2023/01/16 05:53:15;;;;;;;0.40;0.40;;;4.60;1.00;;;;;;5051963;28;20484;-73
2023/01/16 05:55:46;;;;;;;0.38;0.38;;;4.70;1.00;;;;;;5060185;28;20074;-73
2023/01/16 05:58:14;;;;;;;0.38;0.38;;;4.70;1.00;;;;;;5070633;28;20032;-73
2023/01/16 06:00:41;;;;;;;0.30;0.30;;;4.60;1.00;;;;;;5059740;28;20058;-75
2023/01/16 06:03:07;;;;;;;0.35;0.35;;;4.70;1.00;;;;;;5070397;28;20028;-73
2023/01/16 06:05:33;;;;;;;0.40;0.40;;;4.80;1.00;;;;;;5069605;28;20060;-74
2023/01/16 06:07:59;;;;;;;0.30;0.30;;;4.90;18.60;;;;;;5068124;28;20064;-75
2023/01/16 06:10:26;;;;;;;0.40;0.40;;;5.00;39.70;;;;;;5070999;28;20048;-74
2023/01/16 06:12:51;;;;;;;0.30;0.30;;;5.00;65.00;;;;;;5071827;28;20020;-74
2023/01/16 06:15:18;;;;;;;0.30;0.30;;;5.10;94.20;;;;;;5078851;28;20400;-74
2023/01/16 06:17:44;;;;;;;0.30;0.30;;;5.20;99.90;;;;;;5079703;28;20078;-74
2023/01/16 06:20:11;;;;;;;0.30;0.30;;;5.40;99.90;;;;;;5074679;28;20115;-73
2023/01/16 06:22:37;;;;;;;0.38;0.38;;;5.40;99.90;;;;;;5074838;28;20016;-74
2023/01/16 06:25:03;;;;;;;0.30;0.30;;;5.40;99.90;;;;;;5072193;28;20535;-74
2023/01/16 06:27:29;;;;;;;0.30;0.30;;;5.50;99.90;;;;;;5069569;28;20032;-74
2023/01/16 06:29:54;;;;;;;0.30;0.30;;;5.60;99.90;;;;;;5071805;28;20115;-75
2023/01/16 06:32:20;;;;;;;0.30;0.30;;;5.60;99.90;;;;;;5070051;28;20025;-73
2023/01/16 06:34:46;;;;;;;0.30;0.30;;;5.60;99.90;;;;;;5053773;28;20199;-74
2023/01/16 06:37:12;;;;;;;0.35;0.35;;;5.60;99.90;;;;;;5050465;28;20053;-73
2023/01/16 06:39:37;;;;;;;0.30;0.30;;;5.50;99.90;;;;;;5064207;28;20028;-74
2023/01/16 06:42:04;;;;;;;0.40;0.40;;;5.50;99.90;;;;;;5070645;28;20175;-73
2023/01/16 06:44:34;;;;;;;0.30;0.30;;;5.50;99.90;;;;;;5068394;28;20016;-72
2023/01/16 06:47:01;;;;;;;0.40;0.40;;;5.40;99.90;;;;;;5070440;28;20055;-74
2023/01/16 06:49:26;;;;;;;0.40;0.40;;;5.50;99.90;;;;;;5070983;28;20032;-74
2023/01/16 06:51:52;;;;;;;0.40;0.40;;;5.40;99.90;;;;;;5070518;28;20038;-74
2023/01/16 06:54:18;;;;;;;0.32;0.32;;;5.40;99.90;;;;;;5071011;28;20024;-74
2023/01/16 06:56:43;;;;;;;0.40;0.40;;;5.40;99.90;;;;;;5070078;28;20032;-75
2023/01/16 06:59:09;;;;;;;0.30;0.30;;;5.40;99.90;;;;;;5071248;28;20555;-75
2023/01/16 07:01:35;;;;;;;0.40;0.40;;;5.50;99.90;;;;;;5070204;28;20027;-74
2023/01/16 07:04:01;;;;;;;0.30;0.30;;;5.40;99.90;;;;;;5070963;28;20082;-74
2023/01/16 07:06:26;;;;;;;0.40;0.40;;;5.40;99.90;;;;;;5059337;28;20028;-74
2023/01/16 07:08:52;;;;;;;0.30;0.30;;;5.40;99.90;;;;;;5067687;28;20025;-74
2023/01/16 07:11:19;;;;;;;0.40;0.40;;;5.40;99.90;;;;;;5069941;28;20477;-74
2023/01/16 07:13:45;;;;;;;0.30;0.30;;;5.40;99.90;;;;;;5070397;28;20032;-74
2023/01/16 07:24:33;;;;;;;0.40;0.40;;;5.50;99.90;;;;;;5051636;28;20043;-74
2023/01/16 07:27:02;;;;;;;0.40;0.40;;;5.60;99.90;;;;;;5050735;28;20048;-74
2023/01/16 07:29:30;;;;;;;0.32;0.32;;;5.50;99.90;;;;;;5058313;28;20548;-74
2023/01/16 07:31:57;;;;;;;0.40;0.40;;;5.50;99.90;;;;;;5067524;28;20458;-75
2023/01/16 07:34:23;;;;;;;0.32;0.32;;;5.40;99.90;;;;;;5060124;28;20036;-73
2023/01/16 07:36:49;;;;;;;0.40;0.40;;;5.50;99.90;;;;;;5047760;28;20076;-73
2023/01/16 07:39:14;;;;;;;0.40;0.40;;;5.40;99.90;;;;;;5050862;28;20086;-73
2023/01/16 07:41:40;;;;;;;0.40;0.40;;;5.50;99.90;;;;;;5059087;28;20108;-73
2023/01/16 07:44:07;;;;;;;0.40;0.40;;;5.50;99.90;;;;;;5067488;28;20077;-72
2023/01/16 07:46:33;;;;;;;0.32;0.32;;;5.50;98.00;;;;;;5073774;28;20032;-73
2023/01/16 07:48:59;;;;;;;0.30;0.30;;;5.50;68.40;;;;;;5073912;28;20040;-73
2023/01/16 07:51:24;;;;;;;0.32;0.32;;;5.50;58.70;;;;;;5066048;28;20025;-73
2023/01/16 07:53:50;;;;;;;0.40;0.40;;;5.50;48.70;;;;;;5068584;28;20028;-73
2023/01/16 07:56:17;;;;;;;0.40;0.40;;;5.50;39.10;;;;;;5074080;28;20024;-72
2023/01/16 07:58:43;;;;;;;0.40;0.40;;;5.60;47.50;;;;;;5060300;28;20025;-72
2023/01/16 08:01:09;;;;;;;0.32;0.32;;;5.60;34.00;;;;;;5060708;28;20021;-74
2023/01/16 08:03:36;;;;;;;0.40;0.40;;;5.60;16.80;;;;;;5072581;28;20175;-73
2023/01/16 08:06:02;;;;;;;0.30;0.30;;;5.50;16.90;;;;;;5073958;28;20016;-73
2023/01/16 08:08:29;;;;;;;0.40;0.40;;;5.50;17.30;;;;;;5073612;28;20035;-73
2023/01/16 08:10:55;;;;;;;0.40;0.40;;;5.50;23.60;;;;;;5064755;28;20082;-74
2023/01/16 08:13:21;;;;;;;0.30;0.30;;;5.50;33.10;;;;;;5054255;28;20025;-73
2023/01/16 08:15:47;;;;;;;0.40;0.40;;;5.60;40.30;;;;;;5061608;28;20382;-73
2023/01/16 08:18:13;;;;;;;0.80;0.80;;;5.60;45.80;;;;;;5072666;28;20032;-73
2023/01/16 08:20:41;;;;;;;0.40;0.40;;;5.60;44.50;;;;;;5073509;28;20385;-74
2023/01/16 08:23:07;;;;;;;0.30;0.30;;;5.70;48.90;;;;;;5062868;28;20077;-73
2023/01/16 08:25:33;;;;;;;0.40;0.40;;;5.80;52.20;;;;;;5062303;28;20028;-74
2023/01/16 08:27:59;;;;;;;0.40;0.40;;;5.80;59.00;;;;;;5071063;28;20515;-75
2023/01/16 08:30:24;;;;;;;0.40;0.40;;;5.90;69.50;;;;;;5073492;28;20532;-74
2023/01/16 08:33:00;;;;;;;0.30;0.30;;;5.90;81.20;;;;;;5073685;28;20428;-74
2023/01/16 08:35:26;;;;;;;0.30;0.30;;;6.00;88.00;;;;;;5072212;28;20389;-74
2023/01/16 08:37:51;;;;;;;0.30;0.30;;;6.10;90.10;;;;;;5073320;28;20017;-73
2023/01/16 08:40:18;;;;;;;0.30;0.30;;;6.20;75.20;;;;;;5073428;28;20021;-73
2023/01/16 08:51:37;;;;;;;0.30;0.30;;;6.40;91.60;;;;;;5073316;28;20057;-74
2023/01/16 08:53:56;;;;;;;0.40;0.40;;;6.50;97.70;;;;;;5069053;28;20167;-73
2023/01/16 08:56:23;;;;;;;0.30;0.30;;;6.60;94.40;;;;;;5071966;28;20032;-73
2023/01/16 08:58:48;;;;;;;0.50;0.50;;;6.60;91.60;;;;;;5073277;28;20027;-74
2023/01/16 09:01:15;;;;;;;0.30;0.30;;;6.70;59.80;;;;;;5073074;28;20017;-74
2023/01/16 09:03:41;;;;;;;0.30;0.30;;;6.70;16.10;;;;;;5072970;28;20338;-74
2023/01/16 09:06:07;;;;;;;0.30;0.30;;;6.80;1.00;;;;;;5073146;28;20055;-73
2023/01/16 09:08:32;;;;;;;0.30;0.30;;;6.80;1.00;;;;;;5072913;28;20068;-73
2023/01/16 09:13:48;;;;;;;0.40;0.40;;;6.80;1.00;;;;;;5071835;28;20039;-74
2023/01/16 09:16:19;;;;;;;0.40;0.40;;;6.90;1.00;;;;;;5072860;28;20119;-74
2023/01/16 09:18:44;;;;;;;0.40;0.40;;;6.90;99.90;;;;;;5072785;28;20458;-73
2023/01/16 09:21:10;;;;;;;0.30;0.30;;;7.00;99.90;;;;;;5072812;28;20100;-73
2023/01/16 09:23:36;;;;;;;0.30;0.30;;;7.00;99.90;;;;;;5072603;28;20122;-73
2023/01/16 09:26:01;;;;;;;0.30;0.30;;;7.00;99.90;;;;;;5072613;28;20028;-73
2023/01/16 09:28:27;;;;;;;0.40;0.40;;;7.00;99.90;;;;;;5072775;28;20488;-73
2023/01/16 09:30:53;;;;;;;0.40;0.40;;;7.10;99.90;;;;;;5072863;28;20028;-74
2023/01/16 09:33:18;;;;;;;0.30;0.30;;;7.00;99.90;;;;;;5065208;28;20025;-74
2023/01/16 09:35:44;;;;;;;0.30;0.30;;;7.00;99.90;;;;;;5068961;28;20057;-73
2023/01/16 09:38:10;;;;;;;0.30;0.30;;;7.00;99.90;;;;;;5056579;28;20117;-73
2023/01/16 09:40:36;;;;;;;0.45;0.45;;;7.00;99.90;;;;;;5056897;28;20060;-72
2023/01/16 09:45:53;;;;;;;0.30;0.30;;;7.00;99.90;;;;;;5064488;28;20067;-73
2023/01/16 09:48:29;;;;;;;0.40;0.40;;;7.10;99.90;;;;;;5053123;28;20060;-72
2023/01/16 09:51:00;;;;;;;0.30;0.30;;;7.00;99.90;;;;;;5052076;28;20425;-72
2023/01/16 09:59:30;;;;;;;0.40;0.40;;;7.10;99.90;;;;;;5052158;28;20646;-73
2023/01/16 10:02:07;;;;;;;0.70;0.70;;;7.00;99.90;;;;;;5051848;28;20072;-72
2023/01/16 10:04:33;;;;;;;0.30;0.30;;;7.00;99.90;;;;;;5051939;28;20059;-72
2023/01/16 10:07:26;;;;;;;0.40;0.40;;;7.00;99.90;;;;;;5051475;28;20025;-72
2023/01/16 10:10:06;;;;;;;0.30;0.30;;;7.10;99.90;;;;;;5068167;28;20032;-72
2023/01/16 10:12:37;;;;;;;0.30;0.30;;;7.10;99.90;;;;;;5063299;28;20025;-71
2023/01/16 10:15:22;;;;;;;0.32;0.32;;;7.10;99.90;;;;;;5062663;28;20040;-71
2023/01/16 10:18:05;;;;;;;0.82;0.82;;;7.10;99.90;;;;;;5073254;28;20017;-72
2023/01/16 10:20:48;;;;;;;0.30;0.30;;;7.10;99.90;;;;;;5057270;28;20029;-71
2023/01/16 10:24:10;;;;;;;0.35;0.35;;;7.20;99.90;;;;;;5051612;28;20051;-72
2023/01/16 10:26:53;;;;;;;0.37;0.37;;;7.20;99.90;;;;;;4989348;28;20549;-71
2023/01/16 10:29:36;;;;;;;0.30;0.30;;;7.30;99.90;;;;;;4985571;28;20355;-71
2023/01/16 10:32:14;;;;;;;0.30;0.30;;;7.40;99.90;;;;;;5043698;28;20634;-72
2023/01/16 10:34:54;;;;;;;0.50;0.50;;;7.60;99.90;;;;;;5058690;28;20028;-72
2023/01/16 10:37:21;;;;;;;0.30;0.30;;;7.60;99.90;;;;;;5058127;28;20025;-72
2023/01/16 10:39:50;;;;;;;0.30;0.30;;;7.60;99.90;;;;;;5051070;28;20025;-72
2023/01/16 10:51:00;;;;;;;0.30;0.30;;;7.40;99.90;;;;;;5060078;28;20032;-72
2023/01/16 10:53:26;;;;;;;0.30;0.30;;;7.50;99.90;;;;;;5050289;28;20501;-72
2023/01/16 10:55:53;;;;;;;0.40;0.40;;;7.50;99.90;;;;;;5054016;28;20044;-71
2023/01/16 10:58:36;;;;;;;0.40;0.40;;;7.60;99.90;;;;;;5056455;28;20428;-72
2023/01/16 11:01:19;;;;;;;0.35;0.35;;;7.60;99.90;;;;;;5054899;28;20550;-72
2023/01/16 11:03:51;;;;;;;0.40;0.40;;;7.50;99.90;;;;;;5057428;28;20040;-71
2023/01/16 11:06:22;;;;;;;0.40;0.40;;;7.40;99.90;;;;;;5062139;28;20021;-72
2023/01/16 11:08:52;;;;;;;0.35;0.35;;;7.40;99.90;;;;;;5052478;28;20489;-72
2023/01/16 11:20:12;;;;;;;0.30;0.30;;;7.70;99.90;;;;;;5074461;28;20027;-73
2023/01/16 11:22:40;;;;;;;0.40;0.40;;;7.60;99.90;;;;;;5074955;28;20029;-72
2023/01/16 11:25:13;;;;;;;0.40;0.40;;;7.60;99.90;;;;;;5074995;28;20028;-73
2023/01/16 11:27:39;;;;;;;0.40;0.40;;;7.50;99.90;;;;;;5074954;28;20028;-72
2023/01/16 11:30:14;;;;;;;0.30;0.30;;;7.40;99.90;;;;;;5074878;28;20263;-73
2023/01/16 11:32:47;;;;;;;0.40;0.40;;;7.30;99.90;;;;;;5074827;28;20037;-73
2023/01/16 11:35:13;;;;;;;0.40;0.40;;;7.20;99.90;;;;;;5074853;28;20040;-72
2023/01/16 11:37:41;;;;;;;0.30;0.30;;;7.20;99.90;;;;;;5074869;28;20078;-74
2023/01/16 11:40:18;;;;;;;0.30;0.30;;;7.10;99.90;;;;;;5072258;28;20111;-70
2023/01/16 11:46:03;;;;;;;0.38;0.38;;;7.10;99.90;;;;;;5074130;28;20150;-72
2023/01/16 11:48:39;;;;;;;1.48;1.48;;;7.00;99.90;;;;;;5074610;28;20124;-71
2023/01/16 11:51:09;;;;;;;1.50;1.50;;;7.10;99.90;;;;;;5073234;28;20394;-70
2023/01/16 11:53:35;;;;;;;0.93;0.93;;;7.20;99.90;;;;;;5074309;28;20115;-71
2023/01/16 11:56:26;;;;;;;0.40;0.40;;;7.30;99.90;;;;;;5072923;28;20104;-72
2023/01/16 11:59:06;;;;;;;0.30;0.30;;;7.40;99.90;;;;;;5070640;28;20116;-71
2023/01/16 12:08:11;;;;;;;0.30;0.30;;;7.60;99.90;;;;;;5039026;28;20040;-73
2023/01/16 12:10:41;;;;;;;0.40;0.40;;;7.60;99.90;;;;;;5022605;28;20039;-72
2023/01/16 12:16:09;;;;;;;0.40;0.40;;;7.60;99.90;;;;;;5057984;28;20516;-72
2023/01/16 12:18:41;;;;;;;0.35;0.35;;;7.50;99.90;;;;;;5060654;28;20056;-71
2023/01/16 12:21:53;;;;;;;0.43;0.43;;;7.60;99.90;;;;;;5064615;28;20115;-72
2023/01/16 12:24:18;;;;;;;0.30;0.30;;;7.60;99.90;;;;;;5045237;28;20049;-72
2023/01/16 12:27:05;;;;;;;0.40;0.40;;;7.60;99.90;;;;;;5054007;28;20085;-71
2023/01/16 12:30:09;;;;;;;0.70;0.70;;;7.60;99.90;;;;;;5054676;28;20036;-72
2023/01/16 12:33:08;;;;;;;0.30;0.30;;;7.60;99.90;;;;;;5053853;28;20040;-70
2023/01/16 12:35:47;;;;;;;0.40;0.40;;;7.70;99.90;;;;;;5060687;28;20028;-71
2023/01/16 12:38:35;;;;;;;0.38;0.38;;;7.90;99.90;;;;;;5074620;28;20074;-70
2023/01/16 12:44:30;;;;;;;0.30;0.30;;;8.10;99.90;;;;;;5009763;28;20030;-71
2023/01/16 12:47:02;;;;;;;0.30;0.30;;;8.60;99.90;;;;;;5048051;28;20037;-72
2023/01/16 12:49:28;;;;;;;0.30;0.30;;;9.00;99.90;;;;;;5053355;28;20124;-72
2023/01/16 12:52:21;;;;;;;0.40;0.40;;;8.70;99.90;;;;;;5066231;28;20108;-73
2023/01/16 12:54:54;;;;;;;0.30;0.30;;;8.30;99.90;;;;;;5073422;28;20098;-73
2023/01/16 12:57:29;;;;;;;0.70;0.70;;;8.10;99.90;;;;;;5073248;28;20082;-72
2023/01/16 13:00:01;;;;;;;0.40;0.40;;;8.00;99.90;;;;;;5072102;28;20507;-72
2023/01/16 13:02:52;;;;;;;;;;;8.10;99.90;;;;;;5073537;28;20047;-72
2023/01/16 13:05:23;;;;;;;0.30;0.30;;;8.20;99.90;;;;;;5067809;28;19959;-71
2023/01/16 13:08:22;;;;;;;0.30;0.30;;;8.90;99.90;;;;;;5051762;28;20638;-72
2023/01/16 13:14:10;;;;;;;0.28;0.28;;;10.20;99.90;;;;;;5052993;28;20029;-72
2023/01/16 13:16:51;;;;;;;0.30;0.30;;;10.50;99.90;;;;;;5025110;28;20064;-71
2023/01/16 13:19:23;;;;;;;0.20;0.20;;;11.10;99.90;;;;;;5055867;28;20036;-70
2023/01/16 13:21:57;;;;;;;0.30;0.30;;;11.10;99.90;;;;;;5053018;28;20120;-70
2023/01/16 13:24:32;;;;;;;0.30;0.30;;;10.50;99.90;;;;;;5058587;28;20031;-70
2023/01/16 13:27:02;;;;;;;0.30;0.30;;;9.90;99.90;;;;;;5057763;28;20029;-71
2023/01/16 13:29:39;;;;;;;0.30;0.30;;;9.40;99.90;;;;;;5067355;28;20033;-70
2023/01/16 13:32:28;;;;;;;0.30;0.30;;;9.60;99.90;;;;;;5068989;28;20054;-70
2023/01/16 13:35:09;;;;;;;0.30;0.30;;;9.50;99.90;;;;;;5071659;28;20068;-70
2023/01/16 13:37:55;;;;;;;0.20;0.20;;;9.90;99.90;;;;;;5069628;28;20111;-69
2023/01/16 13:40:38;;;;;;;0.30;0.30;;;10.00;99.90;;;;;;5055460;28;20079;-70
2023/01/16 13:45:55;;;;;;;0.30;0.30;;;9.90;99.90;;;;;;5056289;28;20428;-70
2023/01/16 13:48:28;;;;;;;0.40;0.40;;;9.70;99.90;;;;;;5061472;28;20033;-70
2023/01/16 13:51:02;;;;;;;0.30;0.30;;;9.60;99.90;;;;;;5068780;28;20485;-71
2023/01/16 13:53:31;;;;;;;0.55;0.55;;;9.60;99.90;;;;;;5070460;28;20025;-70
2023/01/16 13:56:09;;;;;;;0.30;0.30;;;9.90;99.90;;;;;;5050642;28;20028;-70
2023/01/16 13:58:41;;;;;;;0.30;0.30;;;10.00;99.90;;;;;;5052378;28;20096;-70
2023/01/16 14:01:27;;;;;;;0.40;0.40;;;9.70;99.90;;;;;;5054309;28;20041;-70
2023/01/16 14:04:19;;;;;;;0.20;0.20;;;9.10;99.90;;;;;;5059847;28;20078;-71
2023/01/16 14:09:58;;;;;;;0.40;0.40;;;9.30;99.90;;;;;;5058239;28;20505;-71
2023/01/16 14:12:35;;;;;;;0.35;0.35;;;10.20;99.90;;;;;;5058559;28;20016;-70
2023/01/16 14:18:19;;;;;;;0.30;0.30;;;9.80;99.90;;;;;;5058663;28;20150;-71
2023/01/16 14:20:51;;;;;;;2.55;2.35;;;9.90;99.90;;;;;;5054624;28;20090;-71
2023/01/16 14:26:19;;;;;;;0.43;0.43;;;10.60;99.90;;;;;;5068371;28;20039;-71
2023/01/16 14:28:54;;;;;;;0.30;0.30;;;10.80;99.90;;;;;;5051466;28;20128;-72
2023/01/16 14:31:26;;;;;;;0.30;0.30;;;10.10;99.90;;;;;;5068703;28;20485;-71
2023/01/16 14:33:56;;;;;;;0.40;0.40;;;10.40;99.90;;;;;;5070667;28;20063;-71
2023/01/16 14:36:26;;;;;;;0.25;0.25;;;11.10;99.90;;;;;;5069473;28;20039;-72
2023/01/16 14:38:52;;;;;;;0.93;0.93;;;11.00;99.90;;;;;;5071495;28;20134;-70
2023/01/16 14:56:00;;;;;;;0.30;0.30;;;9.10;99.90;;;;;;5071084;28;20031;-70